sensor_id;sensor_type;location;lat;lon;timestamp;P1;durP1;ratioP1;P2;durP2;ratioP2
8291;SDS011;4184;42.724;23.308;2022-09-24T00:00:51;9.47;;;7.70;;
8291;SDS011;4184;42.724;23.308;2022-09-24T00:03:19;9.73;;;7.60;;
8291;SDS011;4184;42.724;23.308;2022-09-24T00:05:49;9.53;;;7.90;;
8291;SDS011;4184;42.724;23.308;2022-09-24T00:08:18;10.37;;;8.03;;
8291;SDS011;4184;42.724;23.308;2022-09-24T00:10:46;9.07;;;7.20;;
8291;SDS011;4184;42.724;23.308;2022-09-24T00:13:14;9.23;;;7.47;;
8291;SDS011;4184;42.724;23.308;2022-09-24T00:15:44;10.97;;;8.20;;
8291;SDS011;4184;42.724;23.308;2022-09-24T00:18:16;10.10;;;8.03;;
8291;SDS011;4184;42.724;23.308;2022-09-24T00:20:45;11.27;;;8.13;;
8291;SDS011;4184;42.724;23.308;2022-09-24T00:23:13;8.80;;;6.13;;
8291;SDS011;4184;42.724;23.308;2022-09-24T00:25:41;6.40;;;5.43;;
8291;SDS011;4184;42.724;23.308;2022-09-24T00:28:26;5.40;;;4.90;;
8291;SDS011;4184;42.724;23.308;2022-09-24T00:30:55;5.70;;;4.50;;
8291;SDS011;4184;42.724;23.308;2022-09-24T00:33:25;5.20;;;4.23;;
8291;SDS011;4184;42.724;23.308;2022-09-24T00:35:56;4.40;;;4.00;;
8291;SDS011;4184;42.724;23.308;2022-09-24T00:38:26;4.73;;;3.87;;
8291;SDS011;4184;42.724;23.308;2022-09-24T00:40:54;5.80;;;4.03;;
8291;SDS011;4184;42.724;23.308;2022-09-24T00:43:25;4.47;;;3.43;;
8291;SDS011;4184;42.724;23.308;2022-09-24T00:45:55;4.93;;;3.80;;
8291;SDS011;4184;42.724;23.308;2022-09-24T00:48:27;4.17;;;3.57;;
8291;SDS011;4184;42.724;23.308;2022-09-24T00:50:58;3.77;;;3.00;;
8291;SDS011;4184;42.724;23.308;2022-09-24T00:53:26;4.87;;;3.63;;
8291;SDS011;4184;42.724;23.308;2022-09-24T00:55:57;3.77;;;3.43;;
8291;SDS011;4184;42.724;23.308;2022-09-24T00:58:27;3.80;;;3.50;;
8291;SDS011;4184;42.724;23.308;2022-09-24T01:00:57;3.90;;;3.50;;
8291;SDS011;4184;42.724;23.308;2022-09-24T01:03:31;4.53;;;3.70;;
8291;SDS011;4184;42.724;23.308;2022-09-24T01:06:05;4.33;;;3.70;;
8291;SDS011;4184;42.724;23.308;2022-09-24T01:08:33;4.23;;;3.67;;
8291;SDS011;4184;42.724;23.308;2022-09-24T01:11:04;4.27;;;3.80;;
8291;SDS011;4184;42.724;23.308;2022-09-24T01:13:48;4.23;;;3.70;;
8291;SDS011;4184;42.724;23.308;2022-09-24T01:16:31;4.13;;;3.73;;
8291;SDS011;4184;42.724;23.308;2022-09-24T01:19:09;4.67;;;3.67;;
8291;SDS011;4184;42.724;23.308;2022-09-24T01:21:57;6.23;;;3.57;;
8291;SDS011;4184;42.724;23.308;2022-09-24T01:24:37;4.47;;;3.70;;
8291;SDS011;4184;42.724;23.308;2022-09-24T01:27:19;3.90;;;3.50;;
8291;SDS011;4184;42.724;23.308;2022-09-24T01:29:58;5.83;;;3.80;;
8291;SDS011;4184;42.724;23.308;2022-09-24T01:32:30;4.83;;;4.03;;
8291;SDS011;4184;42.724;23.308;2022-09-24T01:35:04;5.57;;;4.13;;
8291;SDS011;4184;42.724;23.308;2022-09-24T01:37:38;5.43;;;3.90;;
8291;SDS011;4184;42.724;23.308;2022-09-24T01:40:08;4.67;;;4.23;;
8291;SDS011;4184;42.724;23.308;2022-09-24T01:42:38;5.13;;;4.10;;
8291;SDS011;4184;42.724;23.308;2022-09-24T01:45:10;4.33;;;3.93;;
8291;SDS011;4184;42.724;23.308;2022-09-24T01:47:40;5.73;;;3.40;;
8291;SDS011;4184;42.724;23.308;2022-09-24T01:50:11;4.77;;;4.10;;
8291;SDS011;4184;42.724;23.308;2022-09-24T01:52:41;5.30;;;4.03;;
8291;SDS011;4184;42.724;23.308;2022-09-24T01:55:15;4.63;;;3.90;;
8291;SDS011;4184;42.724;23.308;2022-09-24T01:57:47;4.27;;;3.87;;
8291;SDS011;4184;42.724;23.308;2022-09-24T02:00:19;5.33;;;3.80;;
8291;SDS011;4184;42.724;23.308;2022-09-24T02:02:48;5.13;;;4.23;;
8291;SDS011;4184;42.724;23.308;2022-09-24T02:05:23;6.33;;;4.17;;
8291;SDS011;4184;42.724;23.308;2022-09-24T02:07:57;4.20;;;3.80;;
8291;SDS011;4184;42.724;23.308;2022-09-24T02:10:32;4.93;;;4.10;;
8291;SDS011;4184;42.724;23.308;2022-09-24T02:13:04;8.07;;;4.33;;
8291;SDS011;4184;42.724;23.308;2022-09-24T02:15:39;7.07;;;4.97;;
8291;SDS011;4184;42.724;23.308;2022-09-24T02:18:11;6.23;;;4.77;;
8291;SDS011;4184;42.724;23.308;2022-09-24T02:20:42;7.27;;;5.23;;
8291;SDS011;4184;42.724;23.308;2022-09-24T02:23:11;6.63;;;4.70;;
8291;SDS011;4184;42.724;23.308;2022-09-24T02:25:43;6.27;;;4.50;;
8291;SDS011;4184;42.724;23.308;2022-09-24T02:28:15;4.33;;;3.90;;
8291;SDS011;4184;42.724;23.308;2022-09-24T02:30:45;4.73;;;3.80;;
8291;SDS011;4184;42.724;23.308;2022-09-24T02:33:17;3.83;;;3.40;;
8291;SDS011;4184;42.724;23.308;2022-09-24T02:36:06;3.10;;;2.80;;
8291;SDS011;4184;42.724;23.308;2022-09-24T02:38:35;4.27;;;3.10;;
8291;SDS011;4184;42.724;23.308;2022-09-24T02:41:03;3.57;;;2.87;;
8291;SDS011;4184;42.724;23.308;2022-09-24T02:43:32;4.17;;;2.97;;
8291;SDS011;4184;42.724;23.308;2022-09-24T02:46:02;3.30;;;3.00;;
8291;SDS011;4184;42.724;23.308;2022-09-24T02:48:29;3.77;;;3.27;;
8291;SDS011;4184;42.724;23.308;2022-09-24T02:50:57;3.73;;;3.43;;
8291;SDS011;4184;42.724;23.308;2022-09-24T02:53:25;4.53;;;3.90;;
8291;SDS011;4184;42.724;23.308;2022-09-24T02:55:52;4.97;;;4.00;;
8291;SDS011;4184;42.724;23.308;2022-09-24T02:58:20;4.53;;;4.13;;
8291;SDS011;4184;42.724;23.308;2022-09-24T03:00:47;4.73;;;3.73;;
8291;SDS011;4184;42.724;23.308;2022-09-24T03:03:16;3.57;;;3.27;;
8291;SDS011;4184;42.724;23.308;2022-09-24T03:05:44;4.00;;;3.60;;
8291;SDS011;4184;42.724;23.308;2022-09-24T03:08:11;4.10;;;3.70;;
8291;SDS011;4184;42.724;23.308;2022-09-24T03:10:39;4.83;;;4.27;;
8291;SDS011;4184;42.724;23.308;2022-09-24T03:13:06;4.57;;;4.17;;
8291;SDS011;4184;42.724;23.308;2022-09-24T03:15:35;4.07;;;3.60;;
8291;SDS011;4184;42.724;23.308;2022-09-24T03:18:02;4.60;;;4.20;;
8291;SDS011;4184;42.724;23.308;2022-09-24T03:20:31;4.60;;;3.70;;
8291;SDS011;4184;42.724;23.308;2022-09-24T03:22:59;3.90;;;3.60;;
8291;SDS011;4184;42.724;23.308;2022-09-24T03:25:27;5.83;;;3.83;;
8291;SDS011;4184;42.724;23.308;2022-09-24T03:27:55;4.50;;;3.33;;
8291;SDS011;4184;42.724;23.308;2022-09-24T03:30:22;3.90;;;3.50;;
8291;SDS011;4184;42.724;23.308;2022-09-24T03:33:07;3.53;;;3.23;;
8291;SDS011;4184;42.724;23.308;2022-09-24T03:35:36;3.10;;;2.80;;
8291;SDS011;4184;42.724;23.308;2022-09-24T03:38:04;3.33;;;2.97;;
8291;SDS011;4184;42.724;23.308;2022-09-24T03:40:31;3.17;;;2.83;;
8291;SDS011;4184;42.724;23.308;2022-09-24T03:42:59;4.37;;;3.30;;
8291;SDS011;4184;42.724;23.308;2022-09-24T03:45:26;3.17;;;2.80;;
8291;SDS011;4184;42.724;23.308;2022-09-24T03:47:54;2.70;;;2.50;;
8291;SDS011;4184;42.724;23.308;2022-09-24T03:50:21;4.43;;;2.63;;
8291;SDS011;4184;42.724;23.308;2022-09-24T03:52:50;3.43;;;2.83;;
8291;SDS011;4184;42.724;23.308;2022-09-24T03:55:18;4.43;;;3.10;;
8291;SDS011;4184;42.724;23.308;2022-09-24T03:57:45;3.27;;;2.97;;
8291;SDS011;4184;42.724;23.308;2022-09-24T04:00:13;3.93;;;3.03;;
8291;SDS011;4184;42.724;23.308;2022-09-24T04:02:41;3.40;;;3.10;;
8291;SDS011;4184;42.724;23.308;2022-09-24T04:05:09;3.10;;;2.80;;
8291;SDS011;4184;42.724;23.308;2022-09-24T04:07:36;3.23;;;2.77;;
8291;SDS011;4184;42.724;23.308;2022-09-24T04:10:06;3.17;;;2.87;;
8291;SDS011;4184;42.724;23.308;2022-09-24T04:12:34;4.37;;;3.07;;
8291;SDS011;4184;42.724;23.308;2022-09-24T04:15:02;3.53;;;3.23;;
8291;SDS011;4184;42.724;23.308;2022-09-24T04:17:30;4.17;;;3.20;;
8291;SDS011;4184;42.724;23.308;2022-09-24T04:19:58;3.87;;;2.83;;
8291;SDS011;4184;42.724;23.308;2022-09-24T04:22:26;2.80;;;2.60;;
8291;SDS011;4184;42.724;23.308;2022-09-24T04:24:53;2.93;;;2.73;;
8291;SDS011;4184;42.724;23.308;2022-09-24T04:27:23;3.43;;;2.90;;
8291;SDS011;4184;42.724;23.308;2022-09-24T04:29:50;4.33;;;3.10;;
8291;SDS011;4184;42.724;23.308;2022-09-24T04:32:18;3.60;;;3.30;;
8291;SDS011;4184;42.724;23.308;2022-09-24T04:34:46;3.30;;;3.00;;
8291;SDS011;4184;42.724;23.308;2022-09-24T04:37:14;3.20;;;2.90;;
8291;SDS011;4184;42.724;23.308;2022-09-24T04:39:41;3.73;;;3.43;;
8291;SDS011;4184;42.724;23.308;2022-09-24T04:42:09;3.93;;;3.10;;
8291;SDS011;4184;42.724;23.308;2022-09-24T04:44:42;4.23;;;3.30;;
8291;SDS011;4184;42.724;23.308;2022-09-24T04:47:11;3.60;;;3.30;;
8291;SDS011;4184;42.724;23.308;2022-09-24T04:49:39;4.03;;;3.30;;
8291;SDS011;4184;42.724;23.308;2022-09-24T04:52:10;2.27;;;2.07;;
8291;SDS011;4184;42.724;23.308;2022-09-24T04:54:39;4.17;;;2.60;;
8291;SDS011;4184;42.724;23.308;2022-09-24T04:57:11;3.10;;;2.80;;
8291;SDS011;4184;42.724;23.308;2022-09-24T04:59:38;2.70;;;2.50;;
8291;SDS011;4184;42.724;23.308;2022-09-24T05:02:08;2.53;;;2.33;;
8291;SDS011;4184;42.724;23.308;2022-09-24T05:04:35;5.17;;;2.90;;
8291;SDS011;4184;42.724;23.308;2022-09-24T05:07:03;3.27;;;2.40;;
8291;SDS011;4184;42.724;23.308;2022-09-24T05:09:31;2.97;;;2.67;;
8291;SDS011;4184;42.724;23.308;2022-09-24T05:11:59;2.87;;;2.60;;
8291;SDS011;4184;42.724;23.308;2022-09-24T05:14:27;3.10;;;2.80;;
8291;SDS011;4184;42.724;23.308;2022-09-24T05:16:54;3.03;;;2.73;;
8291;SDS011;4184;42.724;23.308;2022-09-24T05:19:24;3.47;;;3.17;;
8291;SDS011;4184;42.724;23.308;2022-09-24T05:21:51;3.60;;;3.30;;
8291;SDS011;4184;42.724;23.308;2022-09-24T05:24:19;5.20;;;3.30;;
8291;SDS011;4184;42.724;23.308;2022-09-24T05:26:46;5.47;;;3.50;;
8291;SDS011;4184;42.724;23.308;2022-09-24T05:29:31;4.67;;;3.50;;
8291;SDS011;4184;42.724;23.308;2022-09-24T05:32:01;4.67;;;3.53;;
8291;SDS011;4184;42.724;23.308;2022-09-24T05:34:31;5.90;;;3.47;;
8291;SDS011;4184;42.724;23.308;2022-09-24T05:36:59;4.00;;;3.40;;
8291;SDS011;4184;42.724;23.308;2022-09-24T05:39:27;3.77;;;3.37;;
8291;SDS011;4184;42.724;23.308;2022-09-24T05:41:54;4.37;;;3.70;;
8291;SDS011;4184;42.724;23.308;2022-09-24T05:44:22;4.63;;;3.93;;
8291;SDS011;4184;42.724;23.308;2022-09-24T05:46:50;7.17;;;4.80;;
8291;SDS011;4184;42.724;23.308;2022-09-24T05:49:18;6.63;;;5.03;;
8291;SDS011;4184;42.724;23.308;2022-09-24T05:51:50;7.80;;;5.17;;
8291;SDS011;4184;42.724;23.308;2022-09-24T05:54:20;8.33;;;4.83;;
8291;SDS011;4184;42.724;23.308;2022-09-24T05:56:48;5.10;;;4.60;;
8291;SDS011;4184;42.724;23.308;2022-09-24T05:59:15;10.27;;;4.60;;
8291;SDS011;4184;42.724;23.308;2022-09-24T06:01:43;5.27;;;4.20;;
8291;SDS011;4184;42.724;23.308;2022-09-24T06:04:11;5.20;;;4.17;;
8291;SDS011;4184;42.724;23.308;2022-09-24T06:06:38;6.03;;;4.07;;
8291;SDS011;4184;42.724;23.308;2022-09-24T06:09:09;5.73;;;4.40;;
8291;SDS011;4184;42.724;23.308;2022-09-24T06:11:36;5.47;;;4.67;;
8291;SDS011;4184;42.724;23.308;2022-09-24T06:14:04;5.23;;;4.40;;
8291;SDS011;4184;42.724;23.308;2022-09-24T06:16:32;6.10;;;5.07;;
8291;SDS011;4184;42.724;23.308;2022-09-24T06:19:00;6.97;;;4.57;;
8291;SDS011;4184;42.724;23.308;2022-09-24T06:21:27;6.63;;;4.33;;
8291;SDS011;4184;42.724;23.308;2022-09-24T06:23:55;7.27;;;4.67;;
8291;SDS011;4184;42.724;23.308;2022-09-24T06:26:24;7.10;;;4.57;;
8291;SDS011;4184;42.724;23.308;2022-09-24T06:28:52;5.50;;;4.20;;
8291;SDS011;4184;42.724;23.308;2022-09-24T06:31:20;5.80;;;4.83;;
8291;SDS011;4184;42.724;23.308;2022-09-24T06:33:47;5.40;;;4.87;;
8291;SDS011;4184;42.724;23.308;2022-09-24T06:36:15;5.63;;;4.60;;
8291;SDS011;4184;42.724;23.308;2022-09-24T06:38:42;5.23;;;4.73;;
8291;SDS011;4184;42.724;23.308;2022-09-24T06:41:10;8.67;;;5.00;;
8291;SDS011;4184;42.724;23.308;2022-09-24T06:43:39;5.77;;;5.17;;
8291;SDS011;4184;42.724;23.308;2022-09-24T06:46:07;6.83;;;5.30;;
8291;SDS011;4184;42.724;23.308;2022-09-24T06:48:34;8.03;;;6.17;;
8291;SDS011;4184;42.724;23.308;2022-09-24T06:51:03;8.77;;;6.47;;
8291;SDS011;4184;42.724;23.308;2022-09-24T06:53:33;6.63;;;5.93;;
8291;SDS011;4184;42.724;23.308;2022-09-24T06:56:01;7.47;;;5.67;;
8291;SDS011;4184;42.724;23.308;2022-09-24T06:58:28;9.10;;;5.60;;
8291;SDS011;4184;42.724;23.308;2022-09-24T07:00:58;9.33;;;5.57;;
8291;SDS011;4184;42.724;23.308;2022-09-24T07:03:27;5.47;;;4.87;;
8291;SDS011;4184;42.724;23.308;2022-09-24T07:05:58;6.00;;;4.40;;
8291;SDS011;4184;42.724;23.308;2022-09-24T07:08:27;4.70;;;4.30;;
8291;SDS011;4184;42.724;23.308;2022-09-24T07:10:55;4.43;;;4.10;;
8291;SDS011;4184;42.724;23.308;2022-09-24T07:13:22;4.20;;;3.80;;
8291;SDS011;4184;42.724;23.308;2022-09-24T07:15:50;5.33;;;4.60;;
8291;SDS011;4184;42.724;23.308;2022-09-24T07:18:19;4.30;;;3.60;;
8291;SDS011;4184;42.724;23.308;2022-09-24T07:20:50;4.17;;;3.50;;
8291;SDS011;4184;42.724;23.308;2022-09-24T07:23:18;4.50;;;3.80;;
8291;SDS011;4184;42.724;23.308;2022-09-24T07:25:46;5.73;;;4.90;;
8291;SDS011;4184;42.724;23.308;2022-09-24T07:28:14;4.57;;;4.17;;
8291;SDS011;4184;42.724;23.308;2022-09-24T07:30:42;6.67;;;4.87;;
8291;SDS011;4184;42.724;23.308;2022-09-24T07:33:10;5.03;;;4.00;;
8291;SDS011;4184;42.724;23.308;2022-09-24T07:35:39;6.80;;;4.60;;
8291;SDS011;4184;42.724;23.308;2022-09-24T07:38:07;5.30;;;3.63;;
8291;SDS011;4184;42.724;23.308;2022-09-24T07:40:37;4.87;;;3.93;;
8291;SDS011;4184;42.724;23.308;2022-09-24T07:43:05;4.87;;;3.70;;
8291;SDS011;4184;42.724;23.308;2022-09-24T07:45:36;6.70;;;3.60;;
8291;SDS011;4184;42.724;23.308;2022-09-24T07:48:04;3.80;;;3.50;;
8291;SDS011;4184;42.724;23.308;2022-09-24T07:50:33;4.70;;;3.57;;
8291;SDS011;4184;42.724;23.308;2022-09-24T07:53:07;7.30;;;3.67;;
8291;SDS011;4184;42.724;23.308;2022-09-24T07:55:36;5.80;;;3.97;;
8291;SDS011;4184;42.724;23.308;2022-09-24T07:58:05;4.77;;;3.73;;
8291;SDS011;4184;42.724;23.308;2022-09-24T08:00:34;4.60;;;3.30;;
8291;SDS011;4184;42.724;23.308;2022-09-24T08:03:01;6.07;;;3.93;;
8291;SDS011;4184;42.724;23.308;2022-09-24T08:05:29;6.17;;;4.53;;
8291;SDS011;4184;42.724;23.308;2022-09-24T08:07:58;7.53;;;3.70;;
8291;SDS011;4184;42.724;23.308;2022-09-24T08:10:27;6.50;;;4.20;;
8291;SDS011;4184;42.724;23.308;2022-09-24T08:12:55;4.53;;;3.70;;
8291;SDS011;4184;42.724;23.308;2022-09-24T08:15:27;7.57;;;3.70;;
8291;SDS011;4184;42.724;23.308;2022-09-24T08:17:59;6.43;;;3.60;;
8291;SDS011;4184;42.724;23.308;2022-09-24T08:20:27;9.40;;;3.80;;
8291;SDS011;4184;42.724;23.308;2022-09-24T08:22:59;4.67;;;3.67;;
8291;SDS011;4184;42.724;23.308;2022-09-24T08:25:28;3.93;;;3.47;;
8291;SDS011;4184;42.724;23.308;2022-09-24T08:27:59;5.03;;;3.20;;
8291;SDS011;4184;42.724;23.308;2022-09-24T08:30:27;4.17;;;3.10;;
8291;SDS011;4184;42.724;23.308;2022-09-24T08:32:55;3.47;;;3.10;;
8291;SDS011;4184;42.724;23.308;2022-09-24T08:35:22;5.87;;;3.30;;
8291;SDS011;4184;42.724;23.308;2022-09-24T08:37:52;3.87;;;3.40;;
8291;SDS011;4184;42.724;23.308;2022-09-24T08:40:21;5.80;;;3.97;;
8291;SDS011;4184;42.724;23.308;2022-09-24T08:42:54;5.27;;;3.23;;
8291;SDS011;4184;42.724;23.308;2022-09-24T08:45:27;6.10;;;4.00;;
8291;SDS011;4184;42.724;23.308;2022-09-24T08:48:18;7.33;;;3.33;;
8291;SDS011;4184;42.724;23.308;2022-09-24T08:50:49;6.43;;;3.20;;
8291;SDS011;4184;42.724;23.308;2022-09-24T08:53:23;3.77;;;3.00;;
8291;SDS011;4184;42.724;23.308;2022-09-24T08:55:57;5.00;;;3.60;;
8291;SDS011;4184;42.724;23.308;2022-09-24T08:58:36;4.83;;;3.17;;
8291;SDS011;4184;42.724;23.308;2022-09-24T09:01:13;3.97;;;3.00;;
8291;SDS011;4184;42.724;23.308;2022-09-24T09:03:48;4.10;;;3.47;;
8291;SDS011;4184;42.724;23.308;2022-09-24T09:06:27;3.50;;;3.20;;
8291;SDS011;4184;42.724;23.308;2022-09-24T09:09:09;3.40;;;3.10;;
8291;SDS011;4184;42.724;23.308;2022-09-24T09:11:42;3.27;;;2.77;;
8291;SDS011;4184;42.724;23.308;2022-09-24T09:14:15;4.80;;;3.10;;
8291;SDS011;4184;42.724;23.308;2022-09-24T09:16:46;3.30;;;2.90;;
8291;SDS011;4184;42.724;23.308;2022-09-24T09:19:17;3.37;;;3.07;;
8291;SDS011;4184;42.724;23.308;2022-09-24T09:21:49;3.07;;;2.80;;
8291;SDS011;4184;42.724;23.308;2022-09-24T09:24:23;3.90;;;2.93;;
8291;SDS011;4184;42.724;23.308;2022-09-24T09:27:00;3.33;;;2.90;;
8291;SDS011;4184;42.724;23.308;2022-09-24T09:29:30;2.97;;;2.67;;
8291;SDS011;4184;42.724;23.308;2022-09-24T09:32:01;3.07;;;2.50;;
8291;SDS011;4184;42.724;23.308;2022-09-24T09:34:44;6.53;;;2.90;;
8291;SDS011;4184;42.724;23.308;2022-09-24T09:37:26;4.90;;;2.57;;
8291;SDS011;4184;42.724;23.308;2022-09-24T09:40:02;4.43;;;2.80;;
8291;SDS011;4184;42.724;23.308;2022-09-24T09:42:49;3.50;;;2.80;;
8291;SDS011;4184;42.724;23.308;2022-09-24T09:45:25;4.50;;;2.70;;
8291;SDS011;4184;42.724;23.308;2022-09-24T09:47:59;5.20;;;2.80;;
8291;SDS011;4184;42.724;23.308;2022-09-24T09:50:28;3.53;;;2.70;;
8291;SDS011;4184;42.724;23.308;2022-09-24T09:53:01;3.00;;;2.67;;
8291;SDS011;4184;42.724;23.308;2022-09-24T09:55:31;3.97;;;2.97;;
8291;SDS011;4184;42.724;23.308;2022-09-24T09:58:08;3.00;;;2.70;;
8291;SDS011;4184;42.724;23.308;2022-09-24T10:00:45;3.13;;;2.70;;
8291;SDS011;4184;42.724;23.308;2022-09-24T10:03:20;3.07;;;2.50;;
8291;SDS011;4184;42.724;23.308;2022-09-24T10:05:55;3.27;;;2.60;;
8291;SDS011;4184;42.724;23.308;2022-09-24T10:08:25;3.03;;;2.60;;
8291;SDS011;4184;42.724;23.308;2022-09-24T10:10:54;4.20;;;2.63;;
8291;SDS011;4184;42.724;23.308;2022-09-24T10:13:22;3.13;;;2.40;;
8291;SDS011;4184;42.724;23.308;2022-09-24T10:15:52;3.10;;;2.40;;
8291;SDS011;4184;42.724;23.308;2022-09-24T10:18:25;2.83;;;2.53;;
8291;SDS011;4184;42.724;23.308;2022-09-24T10:20:56;2.67;;;2.43;;
8291;SDS011;4184;42.724;23.308;2022-09-24T10:23:30;2.60;;;2.40;;
8291;SDS011;4184;42.724;23.308;2022-09-24T10:26:01;5.00;;;2.63;;
8291;SDS011;4184;42.724;23.308;2022-09-24T10:28:30;3.10;;;2.43;;
8291;SDS011;4184;42.724;23.308;2022-09-24T10:31:21;2.27;;;2.07;;
8291;SDS011;4184;42.724;23.308;2022-09-24T10:33:52;2.87;;;2.30;;
8291;SDS011;4184;42.724;23.308;2022-09-24T10:36:23;2.77;;;2.57;;
8291;SDS011;4184;42.724;23.308;2022-09-24T10:39:00;2.47;;;2.27;;
8291;SDS011;4184;42.724;23.308;2022-09-24T10:41:29;3.30;;;3.00;;
8291;SDS011;4184;42.724;23.308;2022-09-24T10:43:59;2.40;;;2.20;;
8291;SDS011;4184;42.724;23.308;2022-09-24T10:46:36;3.77;;;2.63;;
8291;SDS011;4184;42.724;23.308;2022-09-24T10:49:17;4.03;;;2.30;;
8291;SDS011;4184;42.724;23.308;2022-09-24T10:51:55;2.73;;;2.50;;
8291;SDS011;4184;42.724;23.308;2022-09-24T10:54:37;2.63;;;2.23;;
8291;SDS011;4184;42.724;23.308;2022-09-24T10:57:17;2.23;;;2.00;;
8291;SDS011;4184;42.724;23.308;2022-09-24T10:59:54;3.30;;;2.20;;
8291;SDS011;4184;42.724;23.308;2022-09-24T11:02:46;2.10;;;1.97;;
8291;SDS011;4184;42.724;23.308;2022-09-24T11:05:35;3.17;;;2.40;;
8291;SDS011;4184;42.724;23.308;2022-09-24T11:08:10;3.10;;;2.07;;
8291;SDS011;4184;42.724;23.308;2022-09-24T11:11:00;2.40;;;2.20;;
8291;SDS011;4184;42.724;23.308;2022-09-24T11:13:37;2.33;;;2.13;;
8291;SDS011;4184;42.724;23.308;2022-09-24T11:16:18;2.30;;;2.10;;
8291;SDS011;4184;42.724;23.308;2022-09-24T11:18:57;2.57;;;2.20;;
8291;SDS011;4184;42.724;23.308;2022-09-24T11:21:28;2.10;;;1.90;;
8291;SDS011;4184;42.724;23.308;2022-09-24T11:24:13;3.47;;;1.77;;
8291;SDS011;4184;42.724;23.308;2022-09-24T11:26:59;2.53;;;1.93;;
8291;SDS011;4184;42.724;23.308;2022-09-24T11:29:44;2.40;;;2.20;;
8291;SDS011;4184;42.724;23.308;2022-09-24T11:32:23;2.17;;;1.97;;
8291;SDS011;4184;42.724;23.308;2022-09-24T11:38:12;2.20;;;2.07;;
8291;SDS011;4184;42.724;23.308;2022-09-24T11:40:56;3.13;;;2.07;;
8291;SDS011;4184;42.724;23.308;2022-09-24T11:43:46;2.73;;;2.00;;
8291;SDS011;4184;42.724;23.308;2022-09-24T11:46:46;2.67;;;2.10;;
8291;SDS011;4184;42.724;23.308;2022-09-24T11:52:12;2.13;;;2.03;;
8291;SDS011;4184;42.724;23.308;2022-09-24T11:54:50;2.33;;;2.17;;
8291;SDS011;4184;42.724;23.308;2022-09-24T11:57:24;2.47;;;2.27;;
8291;SDS011;4184;42.724;23.308;2022-09-24T11:59:55;3.07;;;2.10;;
8291;SDS011;4184;42.724;23.308;2022-09-24T12:02:31;2.37;;;2.13;;
8291;SDS011;4184;42.724;23.308;2022-09-24T12:05:04;2.50;;;2.30;;
8291;SDS011;4184;42.724;23.308;2022-09-24T12:07:41;2.37;;;2.17;;
8291;SDS011;4184;42.724;23.308;2022-09-24T12:10:29;2.07;;;1.90;;
8291;SDS011;4184;42.724;23.308;2022-09-24T12:13:03;2.50;;;2.30;;
8291;SDS011;4184;42.724;23.308;2022-09-24T12:15:41;2.60;;;2.40;;
8291;SDS011;4184;42.724;23.308;2022-09-24T12:18:15;1.80;;;1.70;;
8291;SDS011;4184;42.724;23.308;2022-09-24T12:20:48;2.47;;;2.27;;
8291;SDS011;4184;42.724;23.308;2022-09-24T12:23:18;2.30;;;2.10;;
8291;SDS011;4184;42.724;23.308;2022-09-24T12:25:53;2.20;;;2.00;;
8291;SDS011;4184;42.724;23.308;2022-09-24T12:28:23;1.90;;;1.80;;
8291;SDS011;4184;42.724;23.308;2022-09-24T12:31:17;1.90;;;1.77;;
8291;SDS011;4184;42.724;23.308;2022-09-24T12:34:09;2.23;;;2.03;;
8291;SDS011;4184;42.724;23.308;2022-09-24T12:36:50;3.07;;;2.20;;
8291;SDS011;4184;42.724;23.308;2022-09-24T12:39:23;3.07;;;2.10;;
8291;SDS011;4184;42.724;23.308;2022-09-24T12:41:58;2.20;;;2.00;;
8291;SDS011;4184;42.724;23.308;2022-09-24T12:44:30;2.87;;;1.93;;
8291;SDS011;4184;42.724;23.308;2022-09-24T12:47:03;2.60;;;2.40;;
8291;SDS011;4184;42.724;23.308;2022-09-24T12:49:38;2.60;;;2.20;;
8291;SDS011;4184;42.724;23.308;2022-09-24T12:52:14;2.97;;;2.20;;
8291;SDS011;4184;42.724;23.308;2022-09-24T12:54:44;2.57;;;2.37;;
8291;SDS011;4184;42.724;23.308;2022-09-24T12:57:22;2.17;;;2.03;;
8291;SDS011;4184;42.724;23.308;2022-09-24T12:59:51;2.37;;;2.13;;
8291;SDS011;4184;42.724;23.308;2022-09-24T13:02:21;2.10;;;2.00;;
8291;SDS011;4184;42.724;23.308;2022-09-24T13:04:50;2.47;;;2.27;;
8291;SDS011;4184;42.724;23.308;2022-09-24T13:07:41;2.30;;;2.10;;
8291;SDS011;4184;42.724;23.308;2022-09-24T13:10:23;2.63;;;2.43;;
8291;SDS011;4184;42.724;23.308;2022-09-24T13:12:54;2.37;;;2.17;;
8291;SDS011;4184;42.724;23.308;2022-09-24T13:15:23;3.70;;;2.30;;
8291;SDS011;4184;42.724;23.308;2022-09-24T13:17:59;3.63;;;2.33;;
8291;SDS011;4184;42.724;23.308;2022-09-24T13:20:29;2.00;;;1.90;;
8291;SDS011;4184;42.724;23.308;2022-09-24T13:22:59;2.03;;;1.93;;
8291;SDS011;4184;42.724;23.308;2022-09-24T13:25:38;2.00;;;1.90;;
8291;SDS011;4184;42.724;23.308;2022-09-24T13:28:20;2.20;;;2.00;;
8291;SDS011;4184;42.724;23.308;2022-09-24T13:30:50;2.10;;;1.90;;
8291;SDS011;4184;42.724;23.308;2022-09-24T13:33:25;2.00;;;1.80;;
8291;SDS011;4184;42.724;23.308;2022-09-24T13:35:59;2.20;;;2.00;;
8291;SDS011;4184;42.724;23.308;2022-09-24T13:38:32;2.20;;;2.00;;
8291;SDS011;4184;42.724;23.308;2022-09-24T13:41:10;2.37;;;2.17;;
8291;SDS011;4184;42.724;23.308;2022-09-24T13:43:48;3.17;;;2.10;;
8291;SDS011;4184;42.724;23.308;2022-09-24T13:46:20;5.20;;;2.20;;
8291;SDS011;4184;42.724;23.308;2022-09-24T13:48:49;3.50;;;2.40;;
8291;SDS011;4184;42.724;23.308;2022-09-24T13:51:21;2.33;;;2.13;;
8291;SDS011;4184;42.724;23.308;2022-09-24T13:53:54;2.80;;;2.00;;
8291;SDS011;4184;42.724;23.308;2022-09-24T13:56:27;2.60;;;2.20;;
8291;SDS011;4184;42.724;23.308;2022-09-24T13:59:03;2.30;;;2.10;;
8291;SDS011;4184;42.724;23.308;2022-09-24T14:01:34;2.87;;;2.30;;
8291;SDS011;4184;42.724;23.308;2022-09-24T14:04:06;2.87;;;2.37;;
8291;SDS011;4184;42.724;23.308;2022-09-24T14:06:43;2.40;;;2.20;;
8291;SDS011;4184;42.724;23.308;2022-09-24T14:09:15;2.40;;;2.20;;
8291;SDS011;4184;42.724;23.308;2022-09-24T14:11:55;2.17;;;1.97;;
8291;SDS011;4184;42.724;23.308;2022-09-24T14:14:26;2.10;;;1.90;;
8291;SDS011;4184;42.724;23.308;2022-09-24T14:17:04;2.30;;;2.10;;
8291;SDS011;4184;42.724;23.308;2022-09-24T14:19:32;3.13;;;2.13;;
8291;SDS011;4184;42.724;23.308;2022-09-24T14:22:00;2.37;;;2.17;;
8291;SDS011;4184;42.724;23.308;2022-09-24T14:24:30;2.30;;;2.10;;
8291;SDS011;4184;42.724;23.308;2022-09-24T14:27:00;2.80;;;2.40;;
8291;SDS011;4184;42.724;23.308;2022-09-24T14:29:36;2.57;;;2.37;;
8291;SDS011;4184;42.724;23.308;2022-09-24T14:32:15;3.73;;;2.33;;
8291;SDS011;4184;42.724;23.308;2022-09-24T14:34:47;2.53;;;2.33;;
8291;SDS011;4184;42.724;23.308;2022-09-24T14:37:22;3.07;;;2.57;;
8291;SDS011;4184;42.724;23.308;2022-09-24T14:39:56;2.67;;;2.47;;
8291;SDS011;4184;42.724;23.308;2022-09-24T14:42:28;3.10;;;2.53;;
8291;SDS011;4184;42.724;23.308;2022-09-24T14:45:00;4.00;;;2.70;;
8291;SDS011;4184;42.724;23.308;2022-09-24T14:47:31;2.30;;;2.10;;
8291;SDS011;4184;42.724;23.308;2022-09-24T14:50:00;2.80;;;2.13;;
8291;SDS011;4184;42.724;23.308;2022-09-24T14:52:31;3.97;;;2.40;;
8291;SDS011;4184;42.724;23.308;2022-09-24T14:55:07;2.60;;;2.40;;
8291;SDS011;4184;42.724;23.308;2022-09-24T14:57:40;5.97;;;2.50;;
8291;SDS011;4184;42.724;23.308;2022-09-24T15:00:21;4.30;;;2.67;;
8291;SDS011;4184;42.724;23.308;2022-09-24T15:02:56;4.43;;;2.87;;
8291;SDS011;4184;42.724;23.308;2022-09-24T15:05:26;5.70;;;3.07;;
8291;SDS011;4184;42.724;23.308;2022-09-24T15:08:07;5.67;;;3.20;;
8291;SDS011;4184;42.724;23.308;2022-09-24T15:10:50;7.97;;;4.80;;
8291;SDS011;4184;42.724;23.308;2022-09-24T15:13:20;7.80;;;3.97;;
8291;SDS011;4184;42.724;23.308;2022-09-24T15:16:01;7.80;;;4.20;;
8291;SDS011;4184;42.724;23.308;2022-09-24T15:18:29;9.30;;;5.07;;
8291;SDS011;4184;42.724;23.308;2022-09-24T15:20:58;7.93;;;4.30;;
8291;SDS011;4184;42.724;23.308;2022-09-24T15:23:30;7.13;;;4.87;;
8291;SDS011;4184;42.724;23.308;2022-09-24T15:25:58;5.10;;;3.87;;
8291;SDS011;4184;42.724;23.308;2022-09-24T15:28:25;4.73;;;3.90;;
8291;SDS011;4184;42.724;23.308;2022-09-24T15:30:53;4.83;;;3.70;;
8291;SDS011;4184;42.724;23.308;2022-09-24T15:33:26;3.40;;;3.10;;
8291;SDS011;4184;42.724;23.308;2022-09-24T15:35:53;3.43;;;3.13;;